Time;durP1;ratioP1;P1;durP2;ratioP2;P2;SDS_P1;SDS_P2;PMS_P1;PMS_P2;Temp;Humidity;BMP_temperature;BMP_pressure;BME280_temperature;BME280_humidity;BME280_pressure;Samples;Min_cycle;Max_cycle;Signal;HPM_P1;HPM_P2
2021/05/21 00:01:28;;;;;;;4.65;2.10;;;;;;;8.76;78.78;99314.34;5102781;28;20051;-92
2021/05/21 00:03:54;;;;;;;3.80;2.15;;;;;;;8.63;79.45;99291.47;5109075;28;20123;-91
2021/05/21 00:06:20;;;;;;;3.35;2.28;;;;;;;8.70;79.73;99316.16;5111765;28;20086;-92
2021/05/21 00:08:46;;;;;;;3.65;2.25;;;;;;;8.55;79.82;99296.00;5110228;28;20043;-91
2021/05/21 00:11:11;;;;;;;2.80;2.00;;;;;;;8.57;79.46;99305.69;5106508;28;20040;-91
2021/05/21 00:13:37;;;;;;;4.15;2.20;;;;;;;8.51;79.52;99304.88;5105725;28;20113;-92
2021/05/21 00:16:04;;;;;;;4.32;2.30;;;;;;;8.51;79.85;99313.69;5102314;28;20493;-92
2021/05/21 00:18:31;;;;;;;4.25;2.22;;;;;;;8.40;80.01;99303.19;5112347;28;20043;-92
2021/05/21 00:20:56;;;;;;;4.93;2.33;;;;;;;8.39;80.37;99314.69;5108477;28;20043;-92
2021/05/21 00:23:22;;;;;;;4.55;1.92;;;;;;;8.33;79.15;99297.97;5108239;28;20031;-91
2021/05/21 00:25:48;;;;;;;3.17;2.05;;;;;;;8.27;78.92;99295.34;5113124;28;20036;-92
2021/05/21 00:28:14;;;;;;;3.30;2.20;;;;;;;8.32;79.78;99318.25;5114301;28;20504;-92
2021/05/21 00:30:40;;;;;;;2.80;2.00;;;;;;;8.29;79.22;99304.19;5108826;28;20497;-91
2021/05/21 00:33:07;;;;;;;3.58;2.10;;;;;;;8.27;79.43;99305.97;5107377;27;20089;-91
2021/05/21 00:35:33;;;;;;;3.85;2.30;;;;;;;8.41;78.78;99304.97;5103242;28;20059;-92
2021/05/21 00:37:58;;;;;;;2.30;1.65;;;;;;;8.41;78.92;99294.38;5110895;28;20040;-92
2021/05/21 00:40:24;;;;;;;2.72;1.95;;;;;;;8.59;78.39;99303.91;5105648;28;20397;-91
2021/05/21 00:42:50;;;;;;;3.90;2.30;;;;;;;8.57;77.60;99280.97;5104118;27;20032;-90
2021/05/21 00:45:16;;;;;;;4.57;2.25;;;;;;;8.71;77.26;99296.69;5105910;28;20048;-92
2021/05/21 00:47:42;;;;;;;2.88;2.08;;;;;;;8.84;76.39;99295.66;5109265;27;20531;-93
2021/05/21 00:50:10;;;;;;;7.25;2.20;;;;;;;8.78;75.75;99272.75;5114936;28;20076;-92
2021/05/21 00:52:39;;;;;;;2.35;1.95;;;;;;;9.00;75.66;99286.63;5107746;28;20036;-93
2021/05/21 00:55:05;;;;;;;3.78;1.95;;;;;;;9.08;75.18;99291.84;5105513;28;20035;-91
2021/05/21 00:57:31;;;;;;;3.00;2.00;;;;;;;9.13;74.96;99300.63;5108442;28;20066;-91
2021/05/21 00:59:57;;;;;;;3.10;2.08;;;;;;;9.00;75.50;99288.38;5104477;28;20060;-91
2021/05/21 01:02:23;;;;;;;3.05;2.08;;;;;;;8.91;76.97;99307.06;5105440;28;20134;-91
2021/05/21 01:04:50;;;;;;;3.70;2.40;;;;;;;8.86;77.66;99304.47;5109490;28;20438;-92
2021/05/21 01:07:16;;;;;;;3.72;2.10;;;;;;;8.68;77.88;99307.34;5106372;28;20038;-92
2021/05/21 01:09:42;;;;;;;3.53;2.00;;;;;;;8.67;78.44;99317.06;5108492;28;20063;-92
2021/05/21 01:12:09;;;;;;;3.17;2.08;;;;;;;8.43;78.94;99305.81;5107138;28;20040;-92
2021/05/21 01:14:35;;;;;;;3.60;2.05;;;;;;;8.42;79.24;99303.19;5103165;28;20039;-91
2021/05/21 01:17:01;;;;;;;2.75;1.90;;;;;;;8.42;79.69;99312.00;5108369;28;20066;-92
2021/05/21 01:19:26;;;;;;;2.95;2.00;;;;;;;8.28;79.21;99292.66;5104951;28;20035;-92
2021/05/21 01:21:53;;;;;;;3.08;2.10;;;;;;;8.28;79.17;99313.00;5107592;28;20040;-91
2021/05/21 01:24:21;;;;;;;3.38;1.75;;;;;;;8.23;79.09;99318.34;5113103;28;20028;-92
2021/05/21 01:26:47;;;;;;;5.07;1.90;;;;;;;8.17;77.85;99295.41;5105292;28;20042;-91
2021/05/21 01:29:13;;;;;;;4.15;2.00;;;;;;;8.10;77.96;99295.50;5102491;28;20035;-91
2021/05/21 01:31:42;;;;;;;3.42;1.88;;;;;;;8.17;78.80;99307.78;5105580;28;20374;-92
2021/05/21 01:34:08;;;;;;;2.90;2.00;;;;;;;8.02;78.11;99301.75;5109978;28;20040;-91
2021/05/21 01:36:35;;;;;;;3.50;2.10;;;;;;;8.00;79.05;99305.28;5105758;28;20037;-92
2021/05/21 01:39:07;;;;;;;2.33;1.80;;;;;;;7.99;78.69;99312.34;5106950;28;20032;-91
2021/05/21 01:41:34;;;;;;;3.50;2.00;;;;;;;8.00;77.92;99315.88;5107225;28;20055;-92
2021/05/21 01:44:03;;;;;;;3.35;2.00;;;;;;;7.91;78.33;99314.19;5106797;28;20028;-92
2021/05/21 01:46:29;;;;;;;3.20;1.93;;;;;;;7.89;78.32;99310.66;5103049;28;20115;-92
2021/05/21 01:48:55;;;;;;;3.22;1.90;;;;;;;7.92;78.44;99315.09;5107029;28;20032;-92
2021/05/21 01:51:21;;;;;;;4.28;2.35;;;;;;;7.87;78.19;99296.59;5108169;28;20061;-90
2021/05/21 01:53:47;;;;;;;6.00;2.28;;;;;;;7.96;78.29;99311.53;5104543;28;20732;-91
2021/05/21 01:56:13;;;;;;;3.30;2.22;;;;;;;7.96;78.90;99324.75;5109732;28;20035;-92
2021/05/21 01:58:39;;;;;;;2.90;2.00;;;;;;;7.88;78.94;99316.88;5108626;28;20496;-92
2021/05/21 02:01:05;;;;;;;4.03;1.95;;;;;;;7.83;79.30;99305.44;5109061;28;20036;-92
2021/05/21 02:03:31;;;;;;;2.92;2.10;;;;;;;7.75;79.65;99296.66;5106144;28;20039;-93
2021/05/21 02:05:58;;;;;;;3.53;2.08;;;;;;;7.80;79.85;99313.38;5099709;28;20127;-92
2021/05/21 02:08:25;;;;;;;4.03;2.00;;;;;;;7.79;78.96;99315.16;5101152;28;20071;-92
2021/05/21 02:10:51;;;;;;;3.22;1.80;;;;;;;7.78;79.04;99315.16;5106544;28;20043;-91
2021/05/21 02:13:18;;;;;;;3.63;2.00;;;;;;;7.70;78.64;99296.69;5112288;28;20435;-91
2021/05/21 02:15:45;;;;;;;5.05;2.25;;;;;;;7.69;78.57;99305.50;5099671;28;20040;-92
2021/05/21 02:18:11;;;;;;;3.45;2.08;;;;;;;7.76;78.65;99317.84;5108070;28;20078;-91
2021/05/21 02:20:37;;;;;;;3.10;2.03;;;;;;;7.65;79.14;99301.13;5106390;28;20392;-92
2021/05/21 02:23:03;;;;;;;2.92;2.13;;;;;;;7.65;78.91;99289.66;5112599;28;20043;-92
2021/05/21 02:25:29;;;;;;;3.08;1.90;;;;;;;7.75;79.43;99318.72;5110562;28;20126;-89
2021/05/21 02:27:55;;;;;;;4.10;2.20;;;;;;;7.70;79.31;99316.97;5104704;28;20110;-92
2021/05/21 02:30:22;;;;;;;3.28;2.15;;;;;;;7.64;79.66;99324.97;5104215;28;21171;-91
2021/05/21 02:32:48;;;;;;;3.45;2.28;;;;;;;7.54;79.92;99311.78;5106729;28;20051;-91
2021/05/21 02:35:15;;;;;;;3.67;2.10;;;;;;;7.52;79.34;99310.03;5107826;28;20770;-92
2021/05/21 02:37:41;;;;;;;3.25;2.30;;;;;;;7.45;79.74;99298.63;5109231;28;20043;-91
2021/05/21 02:40:09;;;;;;;4.35;2.30;;;;;;;7.45;79.74;99308.31;5107883;28;20116;-91
2021/05/21 02:42:35;;;;;;;3.88;2.33;;;;;;;7.48;79.66;99303.00;5100759;28;20058;-91
2021/05/21 02:45:02;;;;;;;4.82;3.15;;;;;;;7.29;80.61;99299.59;5105124;28;20044;-90
2021/05/21 02:47:30;;;;;;;4.57;2.20;;;;;;;7.22;80.84;99290.78;5107973;28;20035;-91
2021/05/21 02:49:56;;;;;;;4.28;2.22;;;;;;;7.17;81.31;99288.19;5105316;28;20043;-92
2021/05/21 02:52:22;;;;;;;4.20;2.40;;;;;;;7.11;81.01;99279.41;5104408;28;20040;-90
2021/05/21 02:54:48;;;;;;;4.05;2.25;;;;;;;7.17;80.70;99268.78;5105436;28;20052;-92
2021/05/21 02:57:14;;;;;;;4.80;2.40;;;;;;;7.05;81.22;99267.09;5101818;28;20164;-91
2021/05/21 02:59:40;;;;;;;3.10;2.30;;;;;;;7.12;81.15;99294.41;5103758;28;20036;-91
2021/05/21 03:02:06;;;;;;;3.55;2.17;;;;;;;7.10;81.67;99294.41;5107673;28;20469;-92
2021/05/21 03:04:32;;;;;;;4.57;2.75;;;;;;;7.06;81.97;99292.66;5107499;28;20400;-91
2021/05/21 03:06:58;;;;;;;4.22;2.50;;;;;;;6.95;82.00;99291.81;5109630;28;20501;-91
2021/05/21 03:09:24;;;;;;;4.45;2.15;;;;;;;6.94;82.24;99285.66;5111886;28;20054;-91
2021/05/21 03:11:50;;;;;;;4.30;2.30;;;;;;;6.91;82.09;99287.44;5106059;28;20127;-91
2021/05/21 03:14:16;;;;;;;4.00;2.30;;;;;;;6.86;82.01;99279.50;5106970;28;20104;-92
2021/05/21 03:16:41;;;;;;;3.80;2.30;;;;;;;6.90;82.26;99299.78;5104106;28;20481;-91
2021/05/21 03:19:07;;;;;;;5.55;2.38;;;;;;;6.84;82.23;99297.16;5111391;28;20035;-91
2021/05/21 03:21:34;;;;;;;4.70;2.55;;;;;;;6.84;82.52;99312.13;5107934;28;20125;-91
2021/05/21 03:24:00;;;;;;;4.47;2.35;;;;;;;6.90;82.57;99318.28;5109580;28;20032;-91
2021/05/21 03:26:26;;;;;;;5.03;2.15;;;;;;;6.92;82.37;99323.56;5111923;28;20040;-92
2021/05/21 03:28:52;;;;;;;3.55;2.00;;;;;;;6.85;82.07;99319.16;5109110;28;20559;-92
2021/05/21 03:31:17;;;;;;;4.47;2.47;;;;;;;6.77;82.10;99321.84;5107078;28;20378;-89
2021/05/21 03:33:43;;;;;;;4.20;2.22;;;;;;;6.79;82.42;99322.72;5106767;28;20028;-92
2021/05/21 03:36:10;;;;;;;4.43;2.40;;;;;;;6.80;82.43;99319.19;5105392;28;20119;-91
2021/05/21 03:38:38;;;;;;;4.82;2.45;;;;;;;6.78;82.19;99327.09;5108882;28;20051;-91
2021/05/21 03:41:05;;;;;;;4.88;2.78;;;;;;;6.64;82.60;99317.50;5106740;28;20093;-91
2021/05/21 03:43:31;;;;;;;5.20;2.80;;;;;;;6.68;83.02;99330.69;5107924;28;20039;-92
2021/05/21 03:45:57;;;;;;;6.25;2.80;;;;;;;6.72;83.20;99348.28;5106624;28;20036;-91
2021/05/21 03:48:22;;;;;;;3.45;2.53;;;;;;;6.63;82.98;99340.38;5115428;28;20046;-91
2021/05/21 03:50:48;;;;;;;4.68;2.80;;;;;;;6.64;83.32;99339.50;5112152;28;20063;-92
2021/05/21 03:53:15;;;;;;;2.90;2.25;;;;;;;6.64;83.11;99339.50;5109675;28;20109;-91
2021/05/21 03:55:42;;;;;;;3.17;2.38;;;;;;;6.54;83.16;99319.25;5106337;28;20389;-91
2021/05/21 03:58:09;;;;;;;4.78;2.50;;;;;;;6.68;82.85;99320.13;5111076;27;20050;-93
2021/05/21 04:00:35;;;;;;;4.78;2.53;;;;;;;6.74;82.88;99324.47;5106106;28;20492;-93
2021/05/21 04:03:01;;;;;;;5.38;2.42;;;;;;;6.89;82.88;99339.41;5108170;28;20038;-92
2021/05/21 04:05:31;;;;;;;4.35;2.60;;;;;;;6.80;83.15;99308.59;5113901;28;20122;-91
2021/05/21 04:07:56;;;;;;;4.43;2.58;;;;;;;6.91;83.04;99316.50;5109801;28;20438;-92
2021/05/21 04:10:22;;;;;;;6.00;2.90;;;;;;;7.03;82.65;99313.81;5112082;28;20069;-90
2021/05/21 04:12:49;;;;;;;4.78;2.78;;;;;;;7.11;82.90;99327.91;5109151;28;20093;-91
2021/05/21 04:15:15;;;;;;;3.58;2.45;;;;;;;7.14;82.48;99312.00;5106979;28;20040;-91
2021/05/21 04:17:41;;;;;;;3.47;2.40;;;;;;;7.27;82.19;99323.41;5105994;28;20051;-91
2021/05/21 04:20:08;;;;;;;5.38;2.70;;;;;;;7.29;82.08;99321.66;5110991;28;20032;-92
2021/05/21 04:22:34;;;;;;;4.32;2.70;;;;;;;7.41;81.54;99332.13;5110397;28;20027;-91
2021/05/21 04:25:00;;;;;;;7.63;3.00;;;;;;;7.54;81.81;99338.25;5108081;27;20038;-91
2021/05/21 04:27:26;;;;;;;4.57;2.72;;;;;;;7.67;81.86;99347.00;5106863;28;20046;-91
2021/05/21 04:29:53;;;;;;;5.32;2.90;;;;;;;7.77;81.57;99347.84;5107828;28;20036;-91
2021/05/21 04:32:19;;;;;;;7.30;3.22;;;;;;;7.77;80.73;99324.00;5111233;28;20400;-91
2021/05/21 04:34:45;;;;;;;5.15;2.55;;;;;;;7.89;79.76;99326.53;5109106;28;20132;-91
2021/05/21 04:37:12;;;;;;;6.03;2.92;;;;;;;8.03;79.08;99327.34;5109897;28;20044;-91
2021/05/21 04:39:37;;;;;;;5.40;2.72;;;;;;;8.20;78.53;99318.38;5107126;28;20512;-91
2021/05/21 04:42:04;;;;;;;5.70;3.08;;;;;;;8.34;78.04;99329.72;5111101;28;20054;-91
2021/05/21 04:44:30;;;;;;;5.30;3.00;;;;;;;8.33;78.18;99329.75;5107600;28;20442;-92
2021/05/21 04:46:57;;;;;;;3.65;2.72;;;;;;;8.34;78.10;99340.31;5106299;28;20058;-90
2021/05/21 04:52:21;;;;;;;5.70;2.72;;;;;;;8.37;77.88;99342.97;5103975;27;20373;-91
2021/05/21 04:54:47;;;;;;;6.47;3.10;;;;;;;8.39;78.25;99329.66;5090789;28;20386;-92
2021/05/21 04:57:13;;;;;;;5.25;2.70;;;;;;;8.44;78.46;99322.63;5090512;28;20077;-92
2021/05/21 04:59:39;;;;;;;5.45;2.92;;;;;;;8.64;77.78;99325.94;5090700;28;20066;-92
2021/05/21 05:02:05;;;;;;;3.67;2.60;;;;;;;8.91;75.56;99307.06;5092109;28;20123;-92
2021/05/21 05:04:32;;;;;;;5.65;2.65;;;;;;;9.12;74.38;99304.16;5090737;28;20102;-92
2021/05/21 05:06:58;;;;;;;3.88;2.60;;;;;;;9.36;72.70;99310.06;5090543;28;20044;-90
2021/05/21 05:09:25;;;;;;;4.80;2.20;;;;;;;9.73;71.03;99307.75;5090285;28;20091;-91
2021/05/21 05:11:51;;;;;;;3.50;2.40;;;;;;;9.63;69.86;99300.84;5089036;28;20047;-90
2021/05/21 05:14:16;;;;;;;3.47;2.30;;;;;;;9.65;70.42;99310.53;5090474;28;20036;-91
2021/05/21 05:16:42;;;;;;;3.97;2.20;;;;;;;9.91;70.23;99303.94;5088721;28;20123;-92
2021/05/21 05:19:09;;;;;;;4.47;2.58;;;;;;;9.89;69.47;99329.66;5090220;28;20565;-90
2021/05/21 05:21:39;;;;;;;4.13;2.50;;;;;;;10.23;68.45;99322.00;5090190;28;20044;-94
2021/05/21 05:24:11;;;;;;;4.55;2.92;;;;;;;10.70;66.96;99335.41;5089541;28;20459;-92
2021/05/21 05:26:38;;;;;;;12.52;6.10;;;;;;;10.94;65.50;99314.56;5090115;28;20114;-94
2021/05/21 05:29:04;;;;;;;7.05;3.80;;;;;;;11.12;64.79;99321.28;5090453;28;20033;-92
2021/05/21 05:31:31;;;;;;;6.35;3.30;;;;;;;11.58;63.97;99326.53;5092375;28;20032;-93
2021/05/21 05:33:57;;;;;;;5.72;3.08;;;;;;;11.20;64.09;99314.91;5090104;28;20072;-92
2021/05/21 05:36:23;;;;;;;6.25;3.13;;;;;;;11.29;64.95;99308.50;5089951;28;20037;-93
2021/05/21 05:38:49;;;;;;;5.78;3.10;;;;;;;11.77;63.04;99302.97;5089867;28;20409;-93
2021/05/21 05:41:14;;;;;;;5.22;3.25;;;;;;;12.24;60.48;99308.13;5089991;28;20047;-92
2021/05/21 05:43:41;;;;;;;4.32;2.95;;;;;;;12.57;59.88;99309.03;5089948;28;20047;-92
2021/05/21 05:46:09;;;;;;;4.70;2.70;;;;;;;12.64;59.08;99321.31;5088425;28;20041;-92
2021/05/21 05:48:35;;;;;;;4.50;2.63;;;;;;;13.00;59.13;99323.88;5089342;28;20036;-91
2021/05/21 05:51:01;;;;;;;5.03;2.70;;;;;;;13.36;58.17;99326.47;5089103;28;20040;-90
2021/05/21 05:53:32;;;;;;;5.72;3.20;;;;;;;13.48;57.01;99330.53;5089489;28;20031;-91
2021/05/21 05:55:57;;;;;;;5.25;3.00;;;;;;;13.47;57.97;99342.16;5090086;28;20064;-90
2021/05/21 05:58:23;;;;;;;5.90;3.63;;;;;;;13.49;56.66;99324.28;5089823;28;20059;-92
2021/05/21 06:00:50;;;;;;;5.28;3.40;;;;;;;13.60;56.69;99330.19;5088341;28;20131;-92
2021/05/21 06:03:16;;;;;;;6.70;3.20;;;;;;;13.71;56.32;99330.72;5078462;28;20037;-91
2021/05/21 06:05:41;;;;;;;6.85;3.17;;;;;;;13.78;55.99;99342.09;5075708;28;20047;-94
2021/05/21 06:08:08;;;;;;;5.18;2.92;;;;;;;13.80;54.77;99326.91;5075509;28;20447;-91
2021/05/21 06:10:35;;;;;;;5.25;2.97;;;;;;;13.82;55.17;99330.41;5075070;28;20033;-92
2021/05/21 06:13:02;;;;;;;4.85;3.10;;;;;;;13.94;54.05;99332.69;5075575;28;20506;-92
2021/05/21 06:15:29;;;;;;;4.72;3.20;;;;;;;14.14;54.18;99344.53;5074018;28;20533;-92
2021/05/21 06:17:56;;;;;;;4.10;2.58;;;;;;;13.31;55.85;99345.25;5074926;28;20037;-92
2021/05/21 06:20:22;;;;;;;5.70;2.90;;;;;;;13.85;55.26;99346.31;5075228;28;20041;-93
2021/05/21 06:22:48;;;;;;;4.57;2.50;;;;;;;14.13;55.48;99329.41;5075220;28;20045;-92
2021/05/21 06:25:16;;;;;;;5.50;2.72;;;;;;;14.43;54.58;99321.28;5075428;28;20078;-91
2021/05/21 06:27:42;;;;;;;3.78;2.60;;;;;;;14.75;53.73;99333.59;5075289;28;20040;-89
2021/05/21 06:30:11;;;;;;;5.68;2.67;;;;;;;14.81;53.25;99335.19;5074690;28;20049;-91
2021/05/21 06:32:37;;;;;;;;;;;;;;;14.88;52.11;99340.28;5071973;28;20051;-91
2021/05/21 06:35:05;;;;;;;4.20;2.50;;;;;;;14.94;50.66;99340.06;5075522;28;19975;-92
2021/05/21 06:37:30;;;;;;;4.25;2.22;;;;;;;15.05;50.01;99328.06;5075156;28;20086;-91
2021/05/21 06:39:56;;;;;;;5.95;2.35;;;;;;;15.29;50.27;99334.31;5075136;28;20060;-92
2021/05/21 06:42:22;;;;;;;3.42;2.30;;;;;;;15.48;50.04;99327.34;5075471;28;20127;-93
2021/05/21 06:44:48;;;;;;;3.33;2.25;;;;;;;15.61;49.84;99314.34;5075531;28;20056;-92
2021/05/21 06:47:14;;;;;;;4.00;2.13;;;;;;;15.86;49.40;99330.38;5074099;28;20040;-92
2021/05/21 06:49:40;;;;;;;4.82;2.13;;;;;;;15.81;48.70;99317.16;5075395;28;20039;-92
2021/05/21 06:52:07;;;;;;;3.58;2.38;;;;;;;15.89;49.77;99329.38;5077237;28;20116;-92
2021/05/21 06:54:32;;;;;;;5.30;2.40;;;;;;;15.79;50.59;99334.25;5075818;28;20075;-93
2021/05/21 06:56:58;;;;;;;4.03;2.35;;;;;;;15.71;51.34;99310.41;5074167;28;20060;-92
2021/05/21 06:59:24;;;;;;;4.00;2.08;;;;;;;15.79;51.07;99320.84;5074840;28;20067;-93
2021/05/21 07:01:50;;;;;;;3.92;2.30;;;;;;;15.82;51.06;99302.81;5072468;28;20075;-91
2021/05/21 07:04:16;;;;;;;3.72;2.20;;;;;;;15.98;50.97;99308.44;5076231;28;20048;-92
2021/05/21 07:06:42;;;;;;;4.97;3.00;;;;;;;16.19;50.27;99293.25;5076038;28;20045;-92
2021/05/21 07:09:09;;;;;;;3.78;2.10;;;;;;;16.37;50.04;99310.41;5076938;28;20040;-92
2021/05/21 07:11:36;;;;;;;4.22;2.60;;;;;;;16.36;49.42;99283.63;5074912;28;20036;-94
2021/05/21 07:14:03;;;;;;;4.72;2.80;;;;;;;16.16;50.67;99297.88;5071701;28;20043;-92
2021/05/21 07:16:29;;;;;;;5.40;2.72;;;;;;;16.22;49.88;99289.56;5073016;28;20064;-93
2021/05/21 07:18:55;;;;;;;4.88;2.70;;;;;;;16.27;49.84;99284.03;5074007;28;20561;-91
2021/05/21 07:21:21;;;;;;;4.72;2.90;;;;;;;15.99;50.57;99295.91;5077454;28;20036;-94
2021/05/21 07:23:50;;;;;;;5.65;2.85;;;;;;;15.31;53.57;99305.66;5076097;28;20063;-93
2021/05/21 07:26:17;;;;;;;5.25;2.90;;;;;;;15.35;53.15;99275.13;5075486;28;20041;-92
2021/05/21 07:28:43;;;;;;;5.50;3.10;;;;;;;16.08;52.00;99291.97;5075860;28;20063;-94
2021/05/21 07:31:09;;;;;;;4.90;2.95;;;;;;;16.58;50.33;99275.53;5074881;28;20131;-91
2021/05/21 07:33:36;;;;;;;7.60;3.15;;;;;;;17.08;48.21;99276.94;5076279;28;20047;-92
2021/05/21 07:36:04;;;;;;;5.25;2.85;;;;;;;17.53;47.95;99284.69;5078308;28;20513;-93
2021/05/21 07:38:35;;;;;;;5.72;2.90;;;;;;;17.89;47.10;99283.91;5075753;28;20041;-94
2021/05/21 07:41:02;;;;;;;4.30;2.60;;;;;;;18.24;46.24;99279.44;5074884;28;20043;-93
2021/05/21 07:43:29;;;;;;;5.97;2.63;;;;;;;17.63;46.18;99266.25;5076208;28;20426;-94
2021/05/21 07:45:56;;;;;;;4.13;2.60;;;;;;;17.68;44.65;99255.31;5074130;28;20048;-95
2021/05/21 07:48:23;;;;;;;5.53;2.58;;;;;;;17.70;45.87;99283.88;5074317;28;20421;-94
2021/05/21 07:50:48;;;;;;;6.00;2.53;;;;;;;17.91;45.25;99273.91;5074888;28;20076;-93
2021/05/21 07:53:14;;;;;;;5.22;2.40;;;;;;;18.10;43.89;99287.31;5075683;28;20490;-94
2021/05/21 07:55:40;;;;;;;3.60;2.38;;;;;;;18.17;43.72;99291.47;5074115;28;20510;-92
2021/05/21 07:58:07;;;;;;;3.53;2.10;;;;;;;18.11;43.60;99270.25;5074923;28;20094;-93
2021/05/21 08:00:34;;;;;;;3.67;2.30;;;;;;;18.28;44.28;99280.16;5069896;28;20047;-93
2021/05/21 08:03:00;;;;;;;4.60;2.33;;;;;;;18.46;43.36;99291.81;5074349;28;20075;-94
2021/05/21 08:05:26;;;;;;;5.90;2.60;;;;;;;18.51;42.58;99278.97;5074903;28;20398;-92
2021/05/21 08:07:52;;;;;;;3.65;2.40;;;;;;;17.72;44.36;99279.28;5074571;28;20084;-92
2021/05/21 08:10:17;;;;;;;3.90;2.33;;;;;;;16.93;45.70;99308.03;5073686;28;20497;-92
2021/05/21 08:12:43;;;;;;;5.50;2.42;;;;;;;17.07;47.54;99296.66;5073869;28;20511;-93
2021/05/21 08:15:11;;;;;;;6.22;2.67;;;;;;;17.03;46.43;99295.94;5073407;28;20114;-92
2021/05/21 08:17:37;;;;;;;5.22;2.33;;;;;;;17.39;45.68;99284.44;5074656;28;20132;-92
2021/05/21 08:20:04;;;;;;;5.18;2.50;;;;;;;17.45;44.72;99295.78;5074045;28;20457;-92
2021/05/21 08:22:30;;;;;;;3.60;2.40;;;;;;;18.04;44.86;99282.25;5074863;28;20046;-92
2021/05/21 08:24:56;;;;;;;4.90;2.45;;;;;;;18.23;44.75;99276.81;5075176;28;20489;-93
2021/05/21 08:27:22;;;;;;;7.20;2.80;;;;;;;18.48;44.69;99274.63;5075209;28;20548;-93
2021/05/21 08:29:48;;;;;;;4.97;2.50;;;;;;;18.26;44.87;99255.16;5074910;28;20036;-93
2021/05/21 08:32:14;;;;;;;5.45;2.50;;;;;;;18.78;44.60;99256.97;5074179;28;20036;-94
2021/05/21 08:34:41;;;;;;;3.90;2.42;;;;;;;19.17;43.21;99245.00;5076313;28;20044;-93
2021/05/21 08:37:07;;;;;;;7.47;2.55;;;;;;;19.56;41.55;99235.66;5076399;28;20052;-94
2021/05/21 08:39:34;;;;;;;5.05;2.25;;;;;;;19.26;42.10;99237.28;5075030;28;20041;-92
2021/05/21 08:42:01;;;;;;;4.55;2.35;;;;;;;19.65;40.83;99213.56;5073802;28;20037;-92
2021/05/21 08:44:32;;;;;;;5.28;2.30;;;;;;;19.35;42.03;99244.00;5075344;28;20044;-93
2021/05/21 08:46:59;;;;;;;5.00;2.60;;;;;;;18.15;45.18;99222.50;5074621;28;20055;-93
2021/05/21 08:49:25;;;;;;;5.45;2.67;;;;;;;18.74;44.88;99250.00;5075262;28;20040;-94
2021/05/21 08:51:52;;;;;;;5.00;2.40;;;;;;;19.03;44.29;99254.72;5075055;28;20043;-94
2021/05/21 08:54:18;;;;;;;6.38;2.85;;;;;;;18.24;46.39;99257.06;5073987;28;20044;-92
2021/05/21 08:56:45;;;;;;;5.43;2.30;;;;;;;18.30;45.95;99258.53;5074483;28;20074;-94
2021/05/21 08:59:11;;;;;;;5.95;2.78;;;;;;;18.57;44.89;99251.75;5076176;28;20493;-94
2021/05/21 09:01:51;;;;;;;6.78;2.50;;;;;;;19.09;43.70;99238.22;5075065;28;20082;-92
2021/05/21 09:04:17;;;;;;;4.55;2.10;;;;;;;19.62;43.28;99240.69;5070799;28;20108;-95
2021/05/21 09:06:43;;;;;;;5.38;2.53;;;;;;;20.07;42.81;99252.53;5074905;28;20100;-94
2021/05/21 09:09:11;;;;;;;4.75;2.42;;;;;;;19.65;42.71;99254.91;5074709;28;20494;-94
2021/05/21 09:11:40;;;;;;;4.53;2.58;;;;;;;19.76;41.90;99238.13;5073696;28;20043;-94
2021/05/21 09:14:08;;;;;;;7.47;2.38;;;;;;;19.70;42.87;99257.38;5073480;28;20049;-94
2021/05/21 09:16:35;;;;;;;5.00;2.05;;;;;;;19.89;43.89;99249.09;5074269;28;20039;-93
2021/05/21 09:19:23;;;;;;;3.85;2.30;;;;;;;20.10;41.82;99241.56;5074205;28;20060;-93
2021/05/21 09:21:51;;;;;;;5.85;2.50;;;;;;;20.22;42.23;99232.75;5069618;28;20531;-94
2021/05/21 09:24:20;;;;;;;5.00;2.13;;;;;;;20.76;41.37;99232.22;5073760;28;20047;-93
2021/05/21 09:26:48;;;;;;;3.95;2.30;;;;;;;20.71;40.95;99221.72;5073830;28;20118;-94
2021/05/21 09:29:17;;;;;;;4.82;2.40;;;;;;;21.02;40.71;99222.50;5074457;28;20040;-94
2021/05/21 09:31:44;;;;;;;4.68;2.00;;;;;;;21.20;39.74;99204.22;5073516;28;20119;-94
2021/05/21 09:34:10;;;;;;;5.22;2.20;;;;;;;20.88;39.00;99190.03;5073690;28;20043;-94
2021/05/21 09:36:38;;;;;;;5.25;1.88;;;;;;;20.63;39.66;99201.53;5074500;28;20046;-94
2021/05/21 09:39:06;;;;;;;7.25;1.88;;;;;;;20.98;39.23;99202.03;5076970;28;20040;-93
2021/05/21 09:41:44;;;;;;;4.63;2.13;;;;;;;20.49;39.26;99208.63;5079663;28;20060;-94
2021/05/21 09:44:10;;;;;;;3.75;1.95;;;;;;;20.92;38.05;99222.19;5070690;28;20569;-95
2021/05/21 09:46:40;;;;;;;4.90;2.20;;;;;;;20.92;39.73;99208.69;5077700;28;20040;-95
2021/05/21 09:49:29;;;;;;;4.45;1.65;;;;;;;21.58;37.47;99218.97;5077428;28;20520;-95
2021/05/21 09:51:57;;;;;;;4.30;2.00;;;;;;;21.86;37.96;99190.97;5077758;28;20036;-96
2021/05/21 09:54:24;;;;;;;2.53;1.90;;;;;;;21.68;36.21;99217.41;5084916;28;20082;-94
2021/05/21 09:57:04;;;;;;;4.22;1.85;;;;;;;21.78;37.03;99209.56;5080932;28;20555;-95
2021/05/21 09:59:38;;;;;;;4.70;1.83;;;;;;;22.12;35.49;99213.56;5062039;28;20049;-95
2021/05/21 10:02:18;;;;;;;3.22;1.55;;;;;;;22.40;34.13;99215.31;5071404;28;20037;-94
2021/05/21 10:04:45;;;;;;;2.47;1.50;;;;;;;22.63;33.37;99212.88;5077944;28;20684;-94
2021/05/21 10:07:11;;;;;;;2.15;1.52;;;;;;;22.61;32.71;99201.25;5077506;28;20040;-94
2021/05/21 10:09:37;;;;;;;2.63;1.60;;;;;;;22.87;31.50;99218.41;5078753;28;20051;-93
2021/05/21 10:12:06;;;;;;;3.20;1.73;;;;;;;21.78;34.10;99215.00;5078194;28;20033;-94
2021/05/21 10:14:33;;;;;;;4.88;1.58;;;;;;;22.09;33.85;99217.38;5079158;28;20033;-93
2021/05/21 10:17:00;;;;;;;2.83;2.03;;;;;;;22.24;32.71;99193.81;5078323;28;20066;-93
2021/05/21 10:19:26;;;;;;;2.00;1.50;;;;;;;22.57;30.85;99203.31;5078427;28;20490;-93
2021/05/21 10:21:53;;;;;;;4.88;1.80;;;;;;;22.13;31.29;99204.50;5078002;28;20045;-94
2021/05/21 10:24:21;;;;;;;3.15;1.50;;;;;;;21.84;33.08;99185.66;5077410;28;20432;-95
2021/05/21 10:26:51;;;;;;;1.95;1.33;;;;;;;22.17;30.18;99216.00;5078138;28;20052;-95
2021/05/21 10:29:21;;;;;;;2.53;1.50;;;;;;;22.42;30.60;99196.25;5071278;28;20044;-93
2021/05/21 10:31:50;;;;;;;2.30;1.52;;;;;;;22.58;32.41;99198.78;5077640;28;20041;-93
2021/05/21 10:34:16;;;;;;;;;;;;;;;22.65;30.94;99200.06;5076369;28;20098;-91
2021/05/21 10:36:42;;;;;;;3.45;1.60;;;;;;;22.12;30.33;99191.91;5078367;28;19917;-91
2021/05/21 10:39:10;;;;;;;3.63;1.58;;;;;;;22.42;31.50;99171.84;5076264;28;20094;-93
2021/05/21 10:41:37;;;;;;;1.67;1.33;;;;;;;22.71;29.73;99173.41;5076072;28;20039;-93
2021/05/21 10:44:19;;;;;;;2.92;1.30;;;;;;;22.90;29.73;99156.69;5076677;28;20064;-96
2021/05/21 10:46:47;;;;;;;2.10;1.65;;;;;;;22.67;30.64;99165.59;5078781;28;20055;-92
2021/05/21 10:49:22;;;;;;;1.97;1.30;;;;;;;22.08;29.29;99155.19;5077923;28;20036;-94
2021/05/21 10:51:50;;;;;;;1.80;1.10;;;;;;;21.90;27.71;99149.16;5077803;28;20295;-94
2021/05/21 10:54:28;;;;;;;1.73;1.20;;;;;;;22.27;27.66;99153.00;5078835;28;20498;-94
2021/05/21 10:56:57;;;;;;;2.35;1.30;;;;;;;22.39;28.04;99129.59;5077423;28;20106;-93
2021/05/21 11:02:56;;;;;;;1.40;1.30;;;;;;;22.43;27.72;99143.81;5093231;27;20358;-94
2021/05/21 11:05:27;;;;;;;2.17;1.50;;;;;;;22.39;28.32;99104.34;5095366;28;20584;-93
2021/05/21 11:08:00;;;;;;;1.90;1.30;;;;;;;22.10;27.16;99123.47;5096461;28;20048;-94
2021/05/21 11:10:42;;;;;;;2.67;1.40;;;;;;;22.41;27.79;99103.25;5094695;28;20127;-95
2021/05/21 11:16:31;;;;;;;2.40;1.40;;;;;;;22.27;29.69;99112.34;5107455;27;20359;-95
2021/05/21 11:18:57;;;;;;;2.63;1.30;;;;;;;22.56;28.88;99117.56;5113576;28;20055;-93
2021/05/21 11:21:23;;;;;;;2.95;1.52;;;;;;;22.75;28.63;99081.88;5108361;28;20062;-93
2021/05/21 11:24:03;;;;;;;2.95;1.40;;;;;;;22.92;28.69;99100.50;5099026;28;20082;-92
2021/05/21 11:26:30;;;;;;;2.28;1.30;;;;;;;23.02;28.49;99094.44;5104728;28;20074;-93
2021/05/21 11:28:57;;;;;;;1.92;1.30;;;;;;;23.12;27.93;99093.66;5115770;28;20557;-95
2021/05/21 11:31:25;;;;;;;2.45;1.35;;;;;;;23.29;27.87;99100.53;5108878;28;20036;-95
2021/05/21 11:33:54;;;;;;;2.20;1.40;;;;;;;22.76;26.94;99110.72;5116209;28;20044;-93
2021/05/21 11:36:20;;;;;;;;;;;;;;;22.72;27.79;99126.31;5111226;28;20066;-94
2021/05/21 11:38:47;;;;;;;4.90;1.48;;;;;;;22.96;26.51;99101.13;5115954;28;20002;-96
2021/05/21 11:41:14;;;;;;;2.75;1.40;;;;;;;23.03;24.70;99096.16;5110922;28;20044;-96
2021/05/21 11:43:41;;;;;;;3.28;1.40;;;;;;;23.39;26.38;99108.84;5104517;28;20036;-94
2021/05/21 11:46:13;;;;;;;5.10;1.50;;;;;;;23.35;26.56;99101.91;5106137;28;20044;-94
2021/05/21 11:48:44;;;;;;;2.72;1.17;;;;;;;23.48;26.01;99082.88;5116049;28;20036;-94